Terminal Aerodrome Forecast
Issued by NWS

Current Version | Previous Version | Graphics & Text | Print | Product List | Glossary On
Versions: 1 2 3 4 5 6 7 8 9 10 11 12 13 14 15 16 17 18 19 20 21 22 23 24 25
000
FTUS41 KPBZ 291912 AAA
TAFMGW
TAF AMD
KMGW 291912Z 2919/3018 26006KT P6SM BKN035
     FM300500 00000KT P6SM BKN008
     FM301200 VRB03KT P6SM SCT003
     FM301400 VRB04KT P6SM BKN040=

USA.gov is the U.S. government's official web portal to all federal, state and local government web resources and services.